Date,TemperatureHighF,TemperatureAvgF,TemperatureLowF,DewpointHighF,DewpointAvgF,DewpointLowF,HumidityHigh,HumidityAvg,HumidityLow,PressureMaxIn,PressureMinIn,WindSpeedMaxMPH,WindSpeedAvgMPH,GustSpeedMaxMPH,PrecipitationSumIn
2013-1-1,46,40,37,46,38,34,99,93,84,30.14,29.98,14,1,14,1.25
2013-1-2,44,38,36,44,36,33,99,92,85,30.21,30.02,11,3,11,0.07
2013-1-3,44,36,29,34,30,23,91,78,53,30.40,30.18,8,1,8,0.00
2013-1-4,43,33,25,28,25,22,93,72,51,30.47,30.38,10,1,10,0.00
2013-1-5,46,31,25,37,26,22,94,81,47,30.45,30.28,9,2,9,0.11
2013-1-6,46,40,34,40,36,30,98,89,74,30.33,30.16,13,2,14,0.03
2013-1-7,49,38,29,34,30,25,87,75,54,30.44,30.31,14,2,14,0.00
2013-1-8,54,40,26,39,33,25,96,79,55,30.43,30.32,9,1,10,0.01
2013-1-9,50,46,38,47,43,34,94,89,80,30.47,30.34,11,1,11,0.00
2013-1-10,66,54,47,55,50,46,98,88,68,30.46,30.14,18,3,21,0.00
2013-1-11,67,65,62,64,60,54,96,84,67,30.14,30.03,24,5,25,0.06
2013-1-12,73,66,61,66,63,56,97,90,75,30.11,29.97,16,3,16,0.00
2013-1-13,70,66,60,62,59,56,97,78,69,30.02,29.91,23,5,24,1.34
2013-1-14,61,43,36,60,42,36,98,97,94,30.31,30.01,16,4,19,2.03
2013-1-15,44,41,38,43,40,38,99,98,98,30.21,29.99,12,3,12,2.33
2013-1-16,48,43,41,47,43,40,99,99,98,30.09,29.93,11,1,12,0.41
2013-1-17,42,37,31,41,36,31,99,97,91,30.38,29.88,25,6,28,0.98
2013-1-18,45,34,29,36,31,28,98,88,56,30.57,30.38,10,2,10,0.19
2013-1-19,53,37,23,39,30,22,98,79,45,30.47,30.24,11,2,15,0.01
2013-1-20,56,41,38,39,32,30,76,69,46,30.23,30.14,11,2,13,0.00
2013-1-21,48,37,27,33,25,15,94,64,32,30.26,30.11,13,1,14,0.00
2013-1-22,35,28,20,15,9,-1,65,46,25,30.40,30.24,10,1,12,0.00
2013-1-23,45,35,24,30,18,7,72,51,41,30.42,30.16,15,2,15,0.00
2013-1-24,42,34,26,36,18,6,78,53,32,30.43,30.18,18,4,20,0.00
2013-1-25,35,30,26,34,25,9,98,83,48,30.39,30.14,11,1,11,0.47
2013-1-26,48,38,31,38,33,28,98,84,52,30.39,30.23,9,1,11,0.03
2013-1-27,47,37,28,40,32,26,94,83,65,30.47,30.33,12,2,14,0.02
2013-1-28,59,49,38,53,44,36,98,84,65,30.38,30.23,14,1,16,0.00
2013-1-29,68,57,46,60,52,45,98,85,70,30.24,29.84,21,1,21,0.00
2013-1-30,69,58,41,63,54,37,98,87,71,29.85,29.49,34,8,34,3.12
2013-1-31,44,38,33,37,28,25,92,68,48,30.09,29.70,19,4,25,0.00